sensor_id;sensor_type;location;lat;lon;timestamp;pressure;altitude;pressure_sealevel;temperature;humidity
67987;BME280;54767;53.800;15.956;2023-01-26T00:00:07;101071.16;;;0.50;77.14
67987;BME280;54767;53.800;15.956;2023-01-26T00:02:56;101072.30;;;0.52;76.94
67987;BME280;54767;53.800;15.956;2023-01-26T00:05:25;101071.84;;;0.49;76.85
67987;BME280;54767;53.800;15.956;2023-01-26T00:07:53;101070.38;;;0.48;76.96
67987;BME280;54767;53.800;15.956;2023-01-26T00:10:21;101065.38;;;0.48;76.72
67987;BME280;54767;53.800;15.956;2023-01-26T00:12:50;101060.58;;;0.48;76.69
67987;BME280;54767;53.800;15.956;2023-01-26T00:15:18;101055.77;;;0.49;77.02
67987;BME280;54767;53.800;15.956;2023-01-26T00:17:46;101051.48;;;0.49;77.09
67987;BME280;54767;53.800;15.956;2023-01-26T00:20:15;101048.34;;;0.48;76.91
67987;BME280;54767;53.800;15.956;2023-01-26T00:22:43;101043.66;;;0.48;77.09
67987;BME280;54767;53.800;15.956;2023-01-26T00:25:11;101038.19;;;0.48;76.77
67987;BME280;54767;53.800;15.956;2023-01-26T00:27:42;101035.77;;;0.48;76.97
67987;BME280;54767;53.800;15.956;2023-01-26T00:30:12;101025.28;;;0.49;76.83
67987;BME280;54767;53.800;15.956;2023-01-26T00:32:41;101023.02;;;0.51;76.89
67987;BME280;54767;53.800;15.956;2023-01-26T00:35:10;101019.61;;;0.52;76.80
67987;BME280;54767;53.800;15.956;2023-01-26T00:37:42;101015.95;;;0.51;76.95
67987;BME280;54767;53.800;15.956;2023-01-26T00:40:10;101015.58;;;0.50;76.93
67987;BME280;54767;53.800;15.956;2023-01-26T00:42:39;101014.17;;;0.50;77.06
67987;BME280;54767;53.800;15.956;2023-01-26T00:45:08;101005.69;;;0.52;76.92
67987;BME280;54767;53.800;15.956;2023-01-26T00:47:36;101007.80;;;0.53;77.05
67987;BME280;54767;53.800;15.956;2023-01-26T00:50:05;101006.77;;;0.53;76.99
67987;BME280;54767;53.800;15.956;2023-01-26T00:52:33;101005.06;;;0.53;77.01
67987;BME280;54767;53.800;15.956;2023-01-26T00:55:02;101005.00;;;0.52;76.88
67987;BME280;54767;53.800;15.956;2023-01-26T00:57:31;100996.89;;;0.49;76.82
67987;BME280;54767;53.800;15.956;2023-01-26T00:59:59;100996.99;;;0.48;77.03
67987;BME280;54767;53.800;15.956;2023-01-26T01:02:28;100991.02;;;0.49;77.18
67987;BME280;54767;53.800;15.956;2023-01-26T01:04:56;100989.65;;;0.52;76.84
67987;BME280;54767;53.800;15.956;2023-01-26T01:07:25;100986.85;;;0.51;76.94
67987;BME280;54767;53.800;15.956;2023-01-26T01:09:53;100983.36;;;0.50;77.19
67987;BME280;54767;53.800;15.956;2023-01-26T01:12:21;100978.77;;;0.48;76.90
67987;BME280;54767;53.800;15.956;2023-01-26T01:14:50;100975.41;;;0.46;77.17
67987;BME280;54767;53.800;15.956;2023-01-26T01:17:18;100972.51;;;0.43;77.12
67987;BME280;54767;53.800;15.956;2023-01-26T01:19:46;100969.84;;;0.42;77.17
67987;BME280;54767;53.800;15.956;2023-01-26T01:22:15;100967.50;;;0.43;77.39
67987;BME280;54767;53.800;15.956;2023-01-26T01:24:43;100962.52;;;0.43;77.40
67987;BME280;54767;53.800;15.956;2023-01-26T01:27:11;100960.90;;;0.42;77.48
67987;BME280;54767;53.800;15.956;2023-01-26T01:29:40;100957.08;;;0.41;77.43
67987;BME280;54767;53.800;15.956;2023-01-26T01:32:08;100956.85;;;0.41;77.20
67987;BME280;54767;53.800;15.956;2023-01-26T01:34:36;100963.40;;;0.41;77.34
67987;BME280;54767;53.800;15.956;2023-01-26T01:37:04;100956.71;;;0.41;77.50
67987;BME280;54767;53.800;15.956;2023-01-26T01:39:32;100951.22;;;0.41;77.28
67987;BME280;54767;53.800;15.956;2023-01-26T01:42:01;100943.99;;;0.42;77.26
67987;BME280;54767;53.800;15.956;2023-01-26T01:44:29;100938.67;;;0.42;77.55
67987;BME280;54767;53.800;15.956;2023-01-26T01:47:00;100935.58;;;0.39;77.20
67987;BME280;54767;53.800;15.956;2023-01-26T01:49:37;100941.50;;;0.40;77.66
67987;BME280;54767;53.800;15.956;2023-01-26T01:52:20;100941.59;;;0.42;77.54
67987;BME280;54767;53.800;15.956;2023-01-26T01:54:56;100942.29;;;0.45;77.69
67987;BME280;54767;53.800;15.956;2023-01-26T01:57:32;100939.39;;;0.49;77.54
67987;BME280;54767;53.800;15.956;2023-01-26T02:00:18;100941.48;;;0.53;77.72
67987;BME280;54767;53.800;15.956;2023-01-26T02:08:36;100939.76;;;0.59;77.38
67987;BME280;54767;53.800;15.956;2023-01-26T02:11:09;100935.51;;;0.60;77.31
67987;BME280;54767;53.800;15.956;2023-01-26T02:13:40;100936.66;;;0.62;77.27
67987;BME280;54767;53.800;15.956;2023-01-26T02:16:09;100935.59;;;0.65;77.41
67987;BME280;54767;53.800;15.956;2023-01-26T02:18:38;100939.10;;;0.66;77.39
67987;BME280;54767;53.800;15.956;2023-01-26T02:21:09;100940.81;;;0.66;77.29
67987;BME280;54767;53.800;15.956;2023-01-26T02:26:21;100940.67;;;0.57;77.42
67987;BME280;54767;53.800;15.956;2023-01-26T02:28:50;100936.27;;;0.52;77.44
67987;BME280;54767;53.800;15.956;2023-01-26T02:31:19;100930.20;;;0.51;77.19
67987;BME280;54767;53.800;15.956;2023-01-26T02:33:49;100921.13;;;0.52;77.17
67987;BME280;54767;53.800;15.956;2023-01-26T02:36:19;100918.38;;;0.52;77.10
67987;BME280;54767;53.800;15.956;2023-01-26T02:41:35;100905.31;;;0.46;77.42
67987;BME280;54767;53.800;15.956;2023-01-26T02:44:22;100905.15;;;0.43;77.24
67987;BME280;54767;53.800;15.956;2023-01-26T02:46:52;100909.98;;;0.40;77.30
67987;BME280;54767;53.800;15.956;2023-01-26T02:49:20;100906.11;;;0.38;77.39
67987;BME280;54767;53.800;15.956;2023-01-26T02:52:07;100902.89;;;0.39;77.56
67987;BME280;54767;53.800;15.956;2023-01-26T02:54:36;100899.30;;;0.40;77.17
67987;BME280;54767;53.800;15.956;2023-01-26T02:57:23;100894.56;;;0.41;77.36
67987;BME280;54767;53.800;15.956;2023-01-26T02:59:51;100900.94;;;0.41;77.64
67987;BME280;54767;53.800;15.956;2023-01-26T03:02:23;100898.81;;;0.40;77.75
67987;BME280;54767;53.800;15.956;2023-01-26T03:04:51;100902.80;;;0.41;77.70
67987;BME280;54767;53.800;15.956;2023-01-26T03:07:20;100904.45;;;0.43;77.37
67987;BME280;54767;53.800;15.956;2023-01-26T03:09:48;100902.86;;;0.49;77.66
67987;BME280;54767;53.800;15.956;2023-01-26T03:12:16;100905.18;;;0.53;77.64
67987;BME280;54767;53.800;15.956;2023-01-26T03:14:45;100900.02;;;0.57;77.41
67987;BME280;54767;53.800;15.956;2023-01-26T03:17:33;100896.20;;;0.56;77.47
67987;BME280;54767;53.800;15.956;2023-01-26T03:20:03;100898.47;;;0.54;77.52
67987;BME280;54767;53.800;15.956;2023-01-26T03:22:50;100894.19;;;0.51;77.45
67987;BME280;54767;53.800;15.956;2023-01-26T03:25:42;100891.92;;;0.50;77.46
67987;BME280;54767;53.800;15.956;2023-01-26T03:28:29;100892.04;;;0.53;77.45
67987;BME280;54767;53.800;15.956;2023-01-26T03:30:57;100897.29;;;0.54;77.59
67987;BME280;54767;53.800;15.956;2023-01-26T03:33:26;100890.54;;;0.53;77.75
67987;BME280;54767;53.800;15.956;2023-01-26T03:35:54;100885.58;;;0.54;77.43
67987;BME280;54767;53.800;15.956;2023-01-26T03:38:22;100885.73;;;0.53;77.35
67987;BME280;54767;53.800;15.956;2023-01-26T03:40:50;100888.39;;;0.52;77.59
67987;BME280;54767;53.800;15.956;2023-01-26T03:43:37;100887.94;;;0.50;77.52
67987;BME280;54767;53.800;15.956;2023-01-26T03:46:25;100891.55;;;0.53;77.23
67987;BME280;54767;53.800;15.956;2023-01-26T03:49:12;100894.00;;;0.54;77.30
67987;BME280;54767;53.800;15.956;2023-01-26T03:51:59;100890.72;;;0.54;77.68
67987;BME280;54767;53.800;15.956;2023-01-26T03:54:46;100885.93;;;0.54;77.58
67987;BME280;54767;53.800;15.956;2023-01-26T03:57:33;100881.87;;;0.52;77.43
67987;BME280;54767;53.800;15.956;2023-01-26T04:00:03;100878.20;;;0.51;77.40
67987;BME280;54767;53.800;15.956;2023-01-26T04:02:31;100876.26;;;0.50;77.30
67987;BME280;54767;53.800;15.956;2023-01-26T04:05:19;100875.02;;;0.50;77.46
67987;BME280;54767;53.800;15.956;2023-01-26T04:08:05;100870.28;;;0.48;77.46
67987;BME280;54767;53.800;15.956;2023-01-26T04:10:54;100867.46;;;0.43;77.30
67987;BME280;54767;53.800;15.956;2023-01-26T04:13:43;100863.73;;;0.41;77.36
67987;BME280;54767;53.800;15.956;2023-01-26T04:16:30;100859.44;;;0.38;77.15
67987;BME280;54767;53.800;15.956;2023-01-26T04:19:17;100856.92;;;0.36;77.44
67987;BME280;54767;53.800;15.956;2023-01-26T04:22:04;100859.48;;;0.39;77.64
67987;BME280;54767;53.800;15.956;2023-01-26T04:24:33;100861.70;;;0.42;77.71
67987;BME280;54767;53.800;15.956;2023-01-26T04:27:01;100860.48;;;0.45;77.41
67987;BME280;54767;53.800;15.956;2023-01-26T04:29:29;100864.71;;;0.47;77.66
67987;BME280;54767;53.800;15.956;2023-01-26T04:31:57;100868.05;;;0.48;77.61
67987;BME280;54767;53.800;15.956;2023-01-26T04:34:26;100860.08;;;0.51;77.68
67987;BME280;54767;53.800;15.956;2023-01-26T04:36:54;100858.98;;;0.52;77.70
67987;BME280;54767;53.800;15.956;2023-01-26T04:39:22;100858.73;;;0.54;77.56
67987;BME280;54767;53.800;15.956;2023-01-26T04:41:50;100852.35;;;0.57;77.63
67987;BME280;54767;53.800;15.956;2023-01-26T04:44:19;100854.61;;;0.61;77.48
67987;BME280;54767;53.800;15.956;2023-01-26T04:46:47;100850.84;;;0.61;77.59
67987;BME280;54767;53.800;15.956;2023-01-26T04:49:15;100849.69;;;0.59;77.26
67987;BME280;54767;53.800;15.956;2023-01-26T04:51:44;100849.62;;;0.55;77.63
67987;BME280;54767;53.800;15.956;2023-01-26T04:54:12;100854.70;;;0.53;77.34
67987;BME280;54767;53.800;15.956;2023-01-26T04:56:40;100856.17;;;0.52;77.51
67987;BME280;54767;53.800;15.956;2023-01-26T04:59:09;100853.58;;;0.52;77.68
67987;BME280;54767;53.800;15.956;2023-01-26T05:01:38;100854.80;;;0.51;77.28
67987;BME280;54767;53.800;15.956;2023-01-26T05:04:06;100850.00;;;0.49;77.59
67987;BME280;54767;53.800;15.956;2023-01-26T05:06:35;100845.91;;;0.46;77.62
67987;BME280;54767;53.800;15.956;2023-01-26T05:09:04;100846.65;;;0.44;77.42
67987;BME280;54767;53.800;15.956;2023-01-26T05:11:32;100848.12;;;0.42;77.73
67987;BME280;54767;53.800;15.956;2023-01-26T05:14:01;100849.48;;;0.42;77.53
67987;BME280;54767;53.800;15.956;2023-01-26T05:16:29;100855.46;;;0.44;77.60
67987;BME280;54767;53.800;15.956;2023-01-26T05:18:57;100854.20;;;0.47;77.75
67987;BME280;54767;53.800;15.956;2023-01-26T05:21:25;100861.09;;;0.47;77.56
67987;BME280;54767;53.800;15.956;2023-01-26T05:24:01;100863.52;;;0.44;77.65
67987;BME280;54767;53.800;15.956;2023-01-26T05:26:30;100860.37;;;0.43;77.58
67987;BME280;54767;53.800;15.956;2023-01-26T05:28:58;100855.48;;;0.45;77.64
67987;BME280;54767;53.800;15.956;2023-01-26T05:31:26;100857.15;;;0.47;77.61
67987;BME280;54767;53.800;15.956;2023-01-26T05:33:55;100858.20;;;0.48;77.48
67987;BME280;54767;53.800;15.956;2023-01-26T05:36:23;100856.33;;;0.48;77.82
67987;BME280;54767;53.800;15.956;2023-01-26T05:38:51;100862.83;;;0.50;77.61
67987;BME280;54767;53.800;15.956;2023-01-26T05:41:19;100862.46;;;0.50;77.77
67987;BME280;54767;53.800;15.956;2023-01-26T05:43:48;100861.88;;;0.49;77.69
67987;BME280;54767;53.800;15.956;2023-01-26T05:46:16;100859.83;;;0.49;77.59
67987;BME280;54767;53.800;15.956;2023-01-26T05:48:44;100861.15;;;0.51;77.75
67987;BME280;54767;53.800;15.956;2023-01-26T05:51:12;100860.23;;;0.53;77.53
67987;BME280;54767;53.800;15.956;2023-01-26T05:53:41;100859.49;;;0.56;77.59
67987;BME280;54767;53.800;15.956;2023-01-26T05:56:09;100862.25;;;0.56;77.46
67987;BME280;54767;53.800;15.956;2023-01-26T05:58:37;100867.66;;;0.54;77.56
67987;BME280;54767;53.800;15.956;2023-01-26T06:01:05;100867.88;;;0.55;77.59
67987;BME280;54767;53.800;15.956;2023-01-26T06:03:35;100867.08;;;0.56;77.47
67987;BME280;54767;53.800;15.956;2023-01-26T06:06:04;100867.00;;;0.58;77.64
67987;BME280;54767;53.800;15.956;2023-01-26T06:08:32;100870.70;;;0.59;77.66
67987;BME280;54767;53.800;15.956;2023-01-26T06:11:00;100871.92;;;0.60;77.53
67987;BME280;54767;53.800;15.956;2023-01-26T06:13:28;100871.68;;;0.58;77.36
67987;BME280;54767;53.800;15.956;2023-01-26T06:15:59;100870.52;;;0.56;77.33
67987;BME280;54767;53.800;15.956;2023-01-26T06:18:28;100872.20;;;0.55;77.64
67987;BME280;54767;53.800;15.956;2023-01-26T06:20:59;100871.89;;;0.56;77.78
67987;BME280;54767;53.800;15.956;2023-01-26T06:23:28;100873.85;;;0.57;77.81
67987;BME280;54767;53.800;15.956;2023-01-26T06:26:00;100875.07;;;0.60;77.59
67987;BME280;54767;53.800;15.956;2023-01-26T06:28:29;100873.86;;;0.64;77.74
67987;BME280;54767;53.800;15.956;2023-01-26T06:30:59;100873.98;;;0.66;77.44
67987;BME280;54767;53.800;15.956;2023-01-26T06:33:27;100878.61;;;0.65;77.76
67987;BME280;54767;53.800;15.956;2023-01-26T06:36:01;100877.51;;;0.64;77.67
67987;BME280;54767;53.800;15.956;2023-01-26T06:38:30;100879.79;;;0.65;77.64
67987;BME280;54767;53.800;15.956;2023-01-26T06:40:59;100874.92;;;0.67;77.66
67987;BME280;54767;53.800;15.956;2023-01-26T06:43:33;100880.25;;;0.71;77.63
67987;BME280;54767;53.800;15.956;2023-01-26T06:46:04;100884.81;;;0.72;77.21
67987;BME280;54767;53.800;15.956;2023-01-26T06:48:33;100886.98;;;0.74;77.44
67987;BME280;54767;53.800;15.956;2023-01-26T06:53:46;100883.88;;;0.74;77.31
67987;BME280;54767;53.800;15.956;2023-01-26T06:56:15;100881.66;;;0.75;77.36
67987;BME280;54767;53.800;15.956;2023-01-26T06:58:43;100876.50;;;0.75;77.28
67987;BME280;54767;53.800;15.956;2023-01-26T07:01:33;100874.40;;;0.78;77.21
67987;BME280;54767;53.800;15.956;2023-01-26T07:04:03;100869.20;;;0.80;77.31
67987;BME280;54767;53.800;15.956;2023-01-26T07:06:32;100865.98;;;0.81;77.20
67987;BME280;54767;53.800;15.956;2023-01-26T07:09:00;100868.80;;;0.82;77.52
67987;BME280;54767;53.800;15.956;2023-01-26T07:11:29;100866.68;;;0.81;77.12
67987;BME280;54767;53.800;15.956;2023-01-26T07:13:59;100873.77;;;0.79;77.39
67987;BME280;54767;53.800;15.956;2023-01-26T07:16:27;100877.36;;;0.78;77.10
67987;BME280;54767;53.800;15.956;2023-01-26T07:18:57;100878.60;;;0.79;77.04
67987;BME280;54767;53.800;15.956;2023-01-26T07:21:25;100870.77;;;0.80;76.95
67987;BME280;54767;53.800;15.956;2023-01-26T07:23:54;100866.73;;;0.83;77.20
67987;BME280;54767;53.800;15.956;2023-01-26T07:26:23;100863.83;;;0.83;76.99
67987;BME280;54767;53.800;15.956;2023-01-26T07:28:51;100865.82;;;0.78;76.96
67987;BME280;54767;53.800;15.956;2023-01-26T07:31:19;100863.58;;;0.75;77.20
67987;BME280;54767;53.800;15.956;2023-01-26T07:33:47;100854.20;;;0.73;77.09
67987;BME280;54767;53.800;15.956;2023-01-26T07:36:16;100851.13;;;0.74;77.09
67987;BME280;54767;53.800;15.956;2023-01-26T07:38:44;100845.50;;;0.75;76.96
67987;BME280;54767;53.800;15.956;2023-01-26T07:41:13;100846.82;;;0.78;76.91
67987;BME280;54767;53.800;15.956;2023-01-26T07:43:41;100851.96;;;0.80;77.07
67987;BME280;54767;53.800;15.956;2023-01-26T07:46:09;100846.54;;;0.79;76.97
67987;BME280;54767;53.800;15.956;2023-01-26T07:48:39;100849.73;;;0.74;77.27
67987;BME280;54767;53.800;15.956;2023-01-26T07:51:08;100844.11;;;0.72;76.93
67987;BME280;54767;53.800;15.956;2023-01-26T07:53:38;100840.89;;;0.69;77.02
67987;BME280;54767;53.800;15.956;2023-01-26T07:56:09;100843.27;;;0.68;76.97
67987;BME280;54767;53.800;15.956;2023-01-26T07:58:38;100842.73;;;0.68;76.98
67987;BME280;54767;53.800;15.956;2023-01-26T08:01:12;100840.97;;;0.71;77.25
67987;BME280;54767;53.800;15.956;2023-01-26T08:03:41;100843.45;;;0.72;77.20
67987;BME280;54767;53.800;15.956;2023-01-26T08:06:09;100843.48;;;0.73;77.02
67987;BME280;54767;53.800;15.956;2023-01-26T08:08:44;100838.64;;;0.72;77.14
67987;BME280;54767;53.800;15.956;2023-01-26T08:11:13;100836.96;;;0.70;77.22
67987;BME280;54767;53.800;15.956;2023-01-26T08:13:41;100836.56;;;0.69;77.14
67987;BME280;54767;53.800;15.956;2023-01-26T08:16:10;100836.54;;;0.68;77.43
67987;BME280;54767;53.800;15.956;2023-01-26T08:18:41;100839.81;;;0.72;77.55
67987;BME280;54767;53.800;15.956;2023-01-26T08:21:12;100838.92;;;0.75;77.42
67987;BME280;54767;53.800;15.956;2023-01-26T08:23:41;100835.38;;;0.76;77.13
67987;BME280;54767;53.800;15.956;2023-01-26T08:26:11;100838.52;;;0.77;77.37
67987;BME280;54767;53.800;15.956;2023-01-26T08:28:40;100840.80;;;0.78;77.17
67987;BME280;54767;53.800;15.956;2023-01-26T08:31:11;100844.27;;;0.78;77.27
67987;BME280;54767;53.800;15.956;2023-01-26T08:33:41;100846.67;;;0.78;77.40
67987;BME280;54767;53.800;15.956;2023-01-26T08:36:12;100847.80;;;0.80;77.34
67987;BME280;54767;53.800;15.956;2023-01-26T08:38:40;100849.09;;;0.81;77.35
67987;BME280;54767;53.800;15.956;2023-01-26T08:41:10;100855.64;;;0.85;77.32
67987;BME280;54767;53.800;15.956;2023-01-26T08:43:38;100859.41;;;0.87;77.16
67987;BME280;54767;53.800;15.956;2023-01-26T08:46:08;100852.23;;;0.88;77.03
67987;BME280;54767;53.800;15.956;2023-01-26T08:48:36;100851.04;;;0.89;77.19
67987;BME280;54767;53.800;15.956;2023-01-26T08:51:06;100850.45;;;0.87;77.05
67987;BME280;54767;53.800;15.956;2023-01-26T08:53:35;100851.27;;;0.87;77.25
67987;BME280;54767;53.800;15.956;2023-01-26T08:56:06;100850.09;;;0.84;77.02
67987;BME280;54767;53.800;15.956;2023-01-26T08:58:36;100852.45;;;0.83;77.17
67987;BME280;54767;53.800;15.956;2023-01-26T09:01:10;100846.77;;;0.84;77.00
67987;BME280;54767;53.800;15.956;2023-01-26T09:03:39;100852.36;;;0.84;77.12
67987;BME280;54767;53.800;15.956;2023-01-26T09:06:10;100851.45;;;0.84;76.91
67987;BME280;54767;53.800;15.956;2023-01-26T09:08:38;100853.73;;;0.84;76.95
67987;BME280;54767;53.800;15.956;2023-01-26T09:11:08;100847.56;;;0.85;77.09
67987;BME280;54767;53.800;15.956;2023-01-26T09:13:36;100849.08;;;0.87;77.10
67987;BME280;54767;53.800;15.956;2023-01-26T09:16:08;100844.02;;;0.90;76.92
67987;BME280;54767;53.800;15.956;2023-01-26T09:18:39;100843.89;;;0.91;76.89
67987;BME280;54767;53.800;15.956;2023-01-26T09:21:08;100840.14;;;0.92;77.08
67987;BME280;54767;53.800;15.956;2023-01-26T09:23:36;100840.89;;;0.93;77.01
67987;BME280;54767;53.800;15.956;2023-01-26T09:26:05;100840.63;;;0.91;77.05
67987;BME280;54767;53.800;15.956;2023-01-26T09:28:34;100844.70;;;0.90;77.22
67987;BME280;54767;53.800;15.956;2023-01-26T09:31:03;100848.07;;;0.88;77.15
67987;BME280;54767;53.800;15.956;2023-01-26T09:33:33;100853.77;;;0.89;76.93
67987;BME280;54767;53.800;15.956;2023-01-26T09:36:07;100855.11;;;0.88;77.10
67987;BME280;54767;53.800;15.956;2023-01-26T09:38:36;100847.89;;;0.88;76.96
67987;BME280;54767;53.800;15.956;2023-01-26T09:44:10;100841.59;;;0.93;77.18
67987;BME280;54767;53.800;15.956;2023-01-26T09:47:04;100840.73;;;0.97;77.18
67987;BME280;54767;53.800;15.956;2023-01-26T09:49:52;100834.43;;;0.98;77.20
67987;BME280;54767;53.800;15.956;2023-01-26T09:52:31;100838.45;;;0.99;77.21
67987;BME280;54767;53.800;15.956;2023-01-26T09:55:07;100840.39;;;1.00;77.18
67987;BME280;54767;53.800;15.956;2023-01-26T09:58:05;100836.91;;;1.00;77.03
67987;BME280;54767;53.800;15.956;2023-01-26T10:00:49;100834.45;;;0.99;77.03
67987;BME280;54767;53.800;15.956;2023-01-26T10:03:25;100827.98;;;0.97;77.10
67987;BME280;54767;53.800;15.956;2023-01-26T10:08:49;100828.15;;;0.97;77.09
67987;BME280;54767;53.800;15.956;2023-01-26T10:11:39;100830.14;;;0.99;77.03
67987;BME280;54767;53.800;15.956;2023-01-26T10:17:19;100829.00;;;1.03;76.93
67987;BME280;54767;53.800;15.956;2023-01-26T10:19:59;100827.27;;;1.03;76.95
67987;BME280;54767;53.800;15.956;2023-01-26T10:22:51;100822.38;;;1.02;76.83
67987;BME280;54767;53.800;15.956;2023-01-26T10:25:33;100818.86;;;1.01;76.86
67987;BME280;54767;53.800;15.956;2023-01-26T10:28:17;100818.74;;;1.02;76.83
67987;BME280;54767;53.800;15.956;2023-01-26T10:30:47;100809.45;;;1.05;76.98
67987;BME280;54767;53.800;15.956;2023-01-26T10:33:26;100810.14;;;1.08;76.94
67987;BME280;54767;53.800;15.956;2023-01-26T10:35:55;100807.64;;;1.10;76.97
67987;BME280;54767;53.800;15.956;2023-01-26T10:43:58;100808.68;;;1.10;76.94
67987;BME280;54767;53.800;15.956;2023-01-26T10:46:35;100807.56;;;1.12;76.68
67987;BME280;54767;53.800;15.956;2023-01-26T10:51:38;100797.98;;;1.13;76.76
67987;BME280;54767;53.800;15.956;2023-01-26T10:54:27;100798.20;;;1.15;76.87
67987;BME280;54767;53.800;15.956;2023-01-26T10:56:57;100795.14;;;1.16;76.58
67987;BME280;54767;53.800;15.956;2023-01-26T10:59:49;100793.33;;;1.14;76.65
67987;BME280;54767;53.800;15.956;2023-01-26T11:02:29;100799.67;;;1.13;76.59
67987;BME280;54767;53.800;15.956;2023-01-26T11:07:41;100791.98;;;1.11;76.56
67987;BME280;54767;53.800;15.956;2023-01-26T11:10:25;100790.34;;;1.12;76.68
67987;BME280;54767;53.800;15.956;2023-01-26T11:13:15;100783.74;;;1.16;76.85
67987;BME280;54767;53.800;15.956;2023-01-26T11:15:59;100782.58;;;1.17;76.67
67987;BME280;54767;53.800;15.956;2023-01-26T11:35:15;100793.08;;;0.98;76.75
67987;BME280;54767;53.800;15.956;2023-01-26T11:37:48;100790.54;;;0.96;76.81
67987;BME280;54767;53.800;15.956;2023-01-26T11:46:00;100794.84;;;0.88;76.95
67987;BME280;54767;53.800;15.956;2023-01-26T11:56:43;100787.02;;;0.87;76.85
67987;BME280;54767;53.800;15.956;2023-01-26T11:59:31;100783.42;;;0.87;76.76
67987;BME280;54767;53.800;15.956;2023-01-26T12:02:32;100786.61;;;0.86;77.17
67987;BME280;54767;53.800;15.956;2023-01-26T12:08:03;100779.31;;;0.85;77.01
67987;BME280;54767;53.800;15.956;2023-01-26T12:10:39;100766.65;;;0.83;76.92
67987;BME280;54767;53.800;15.956;2023-01-26T12:15:55;100766.48;;;0.73;76.96
67987;BME280;54767;53.800;15.956;2023-01-26T12:18:38;100762.53;;;0.66;76.70
67987;BME280;54767;53.800;15.956;2023-01-26T12:21:30;100760.10;;;0.55;76.69
67987;BME280;54767;53.800;15.956;2023-01-26T12:24:04;100750.92;;;0.41;77.07
67987;BME280;54767;53.800;15.956;2023-01-26T12:26:44;100747.58;;;0.36;77.15
67987;BME280;54767;53.800;15.956;2023-01-26T12:29:29;100742.90;;;0.32;77.37
67987;BME280;54767;53.800;15.956;2023-01-26T12:32:07;100742.55;;;0.29;77.19
67987;BME280;54767;53.800;15.956;2023-01-26T12:34:37;100744.20;;;0.24;77.25
67987;BME280;54767;53.800;15.956;2023-01-26T12:40:10;100743.06;;;0.18;77.28
67987;BME280;54767;53.800;15.956;2023-01-26T12:45:45;100733.54;;;0.07;77.37
67987;BME280;54767;53.800;15.956;2023-01-26T12:48:26;100729.02;;;0.07;77.74
67987;BME280;54767;53.800;15.956;2023-01-26T12:51:09;100727.73;;;0.08;78.03
67987;BME280;54767;53.800;15.956;2023-01-26T12:53:51;100730.63;;;0.08;77.85
67987;BME280;54767;53.800;15.956;2023-01-26T12:56:31;100734.83;;;0.09;77.66
67987;BME280;54767;53.800;15.956;2023-01-26T12:59:05;100735.41;;;0.13;77.80
67987;BME280;54767;53.800;15.956;2023-01-26T13:02:10;100732.98;;;0.19;78.24
67987;BME280;54767;53.800;15.956;2023-01-26T13:04:44;100735.23;;;0.27;78.14
67987;BME280;54767;53.800;15.956;2023-01-26T13:07:38;100733.74;;;0.31;78.15
67987;BME280;54767;53.800;15.956;2023-01-26T13:10:17;100735.71;;;0.36;77.91
67987;BME280;54767;53.800;15.956;2023-01-26T13:13:23;100743.13;;;0.40;78.07
67987;BME280;54767;53.800;15.956;2023-01-26T13:26:45;100750.89;;;0.54;77.91
67987;BME280;54767;53.800;15.956;2023-01-26T13:31:56;100745.95;;;0.65;77.97
67987;BME280;54767;53.800;15.956;2023-01-26T13:34:39;100738.06;;;0.69;77.77
67987;BME280;54767;53.800;15.956;2023-01-26T13:37:15;100740.88;;;0.74;77.91
67987;BME280;54767;53.800;15.956;2023-01-26T13:39:51;100738.73;;;0.79;77.74
67987;BME280;54767;53.800;15.956;2023-01-26T13:42:28;100738.70;;;0.86;77.43
67987;BME280;54767;53.800;15.956;2023-01-26T13:45:03;100736.04;;;0.91;77.63
67987;BME280;54767;53.800;15.956;2023-01-26T13:47:38;100737.95;;;0.95;77.53
67987;BME280;54767;53.800;15.956;2023-01-26T13:50:30;100743.46;;;0.99;77.53
67987;BME280;54767;53.800;15.956;2023-01-26T13:52:59;100745.27;;;1.00;77.51
67987;BME280;54767;53.800;15.956;2023-01-26T13:55:30;100741.97;;;1.00;77.13
67987;BME280;54767;53.800;15.956;2023-01-26T13:58:15;100740.14;;;0.98;76.90
67987;BME280;54767;53.800;15.956;2023-01-26T14:01:05;100733.98;;;0.95;76.77
67987;BME280;54767;53.800;15.956;2023-01-26T14:03:34;100732.05;;;0.95;76.65
67987;BME280;54767;53.800;15.956;2023-01-26T14:06:06;100729.89;;;0.96;76.96
67987;BME280;54767;53.800;15.956;2023-01-26T14:08:37;100728.67;;;0.99;77.05
67987;BME280;54767;53.800;15.956;2023-01-26T14:11:16;100719.65;;;1.02;76.80
67987;BME280;54767;53.800;15.956;2023-01-26T14:13:49;100721.02;;;1.05;76.93
67987;BME280;54767;53.800;15.956;2023-01-26T14:16:22;100720.21;;;1.06;76.98
67987;BME280;54767;53.800;15.956;2023-01-26T14:19:14;100719.97;;;1.08;77.06
67987;BME280;54767;53.800;15.956;2023-01-26T14:21:48;100724.52;;;1.09;76.85
67987;BME280;54767;53.800;15.956;2023-01-26T14:24:39;100725.75;;;1.14;77.01
67987;BME280;54767;53.800;15.956;2023-01-26T14:27:34;100726.79;;;1.18;76.93
67987;BME280;54767;53.800;15.956;2023-01-26T14:32:47;100733.48;;;1.21;76.25
67987;BME280;54767;53.800;15.956;2023-01-26T14:35:21;100732.71;;;1.19;76.22
67987;BME280;54767;53.800;15.956;2023-01-26T14:38:24;100729.74;;;1.15;76.05
67987;BME280;54767;53.800;15.956;2023-01-26T14:40:58;100729.08;;;1.08;76.38
67987;BME280;54767;53.800;15.956;2023-01-26T14:43:28;100735.05;;;1.07;76.54
67987;BME280;54767;53.800;15.956;2023-01-26T14:46:06;100732.31;;;1.07;76.31
67987;BME280;54767;53.800;15.956;2023-01-26T14:48:47;100738.39;;;1.11;76.68
67987;BME280;54767;53.800;15.956;2023-01-26T14:51:21;100740.48;;;1.16;76.74
67987;BME280;54767;53.800;15.956;2023-01-26T14:53:58;100740.11;;;1.19;76.79